Latest Flight | Flight Log | Data Trends | ECTM | Login | Join FlightData.com!
Date Range From To
Export:
Flight Log - N91CH - Click on row to view flight. Click on header to sort.
Date Origin Dest Depart Arrive Hobbs Flight Time Flight Distance Fuel Fuel/hr Fuel/nm Altitude Gnd Speed
Fri, Sep 30, 2011 KSFB KPIE 15:26 16:16 0.8 hrs 0.50 hrs 117.26 nm 527.88 gal 657.11 gal/hr 4.50 gal/nm 11536 msl 221 kts
Fri, Sep 30, 2011 KSFB KSFB 09:21 10:44 1.37 hrs 0.84 hrs 150.66 nm 668.26 gal 487.78 gal/hr 4.44 gal/nm 5546 msl 176 kts
Thu, Sep 29, 2011     17:04 17:06 0.04 hrs 0.00 hrs 0.00 nm 16.92 gal 441.39 gal/hr 0.00 gal/nm 0 msl 0 kts
Thu, Sep 29, 2011 KSFB KSFB 11:40 13:25 1.7 hrs 1.26 hrs 224.41 nm 959.24 gal 564.26 gal/hr 4.27 gal/nm 8591 msl 173 kts
Thu, Sep 29, 2011     08:46 08:46 0.01 hrs 0.00 hrs 0.00 nm 22.57 gal 2257.00 gal/hr 0.00 gal/nm 0 msl 0 kts
Thu, Sep 29, 2011     08:38 08:38 0.01 hrs 0.00 hrs 0.00 nm 22.58 gal 2258.00 gal/hr 0.00 gal/nm 0 msl 0 kts
Thu, Sep 29, 2011     07:20 07:22 0.03 hrs 0.00 hrs 0.00 nm 11.28 gal 338.40 gal/hr 0.00 gal/nm 0 msl 0 kts
Wed, Sep 28, 2011 KSFB KSFB 09:25 11:43 2.26 hrs 1.81 hrs 290.12 nm 1385.23 gal 612.93 gal/hr 4.77 gal/nm 2760 msl 158 kts
Tue, Sep 27, 2011     16:21 16:21 0.01 hrs 0.00 hrs 0.00 nm 0.00 gal 0.00 gal/hr 0.00 gal/nm 0 msl 0 kts
Tue, Sep 27, 2011 KSFB KSFB 13:36 14:43 1.07 hrs 0.69 hrs 106.27 nm 568.48 gal 532.95 gal/hr 5.35 gal/nm 2049 msl 148 kts
Tue, Sep 27, 2011     13:25 13:25 0.01 hrs 0.00 hrs 0.00 nm 11.28 gal 2256.00 gal/hr 0.00 gal/nm 0 msl 0 kts
Tue, Sep 27, 2011 KSFB KSFB 09:53 11:36 1.61 hrs 1.18 hrs 235.20 nm 1006.82 gal 624.06 gal/hr 4.28 gal/nm 9590 msl 186 kts
Mon, Sep 26, 2011     15:24 15:24 0.01 hrs 0.00 hrs 0.00 nm 11.29 gal 2258.00 gal/hr 0.00 gal/nm 0 msl 0 kts
Sat, Sep 24, 2011     15:32 15:33 0.02 hrs 0.00 hrs 0.00 nm 5.64 gal 241.71 gal/hr 0.00 gal/nm 0 msl 0 kts
Sat, Sep 24, 2011     15:15 15:16 0.02 hrs 0.00 hrs 0.00 nm 22.56 gal 966.86 gal/hr 0.00 gal/nm 0 msl 0 kts
Sat, Sep 24, 2011     15:14 15:14 0.01 hrs 0.00 hrs 0.00 nm 0.00 gal 0.00 gal/hr 0.00 gal/nm 0 msl 0 kts
Sat, Sep 24, 2011     15:12 15:12 0.01 hrs 0.00 hrs 0.00 nm 11.28 gal 2256.00 gal/hr 0.00 gal/nm 0 msl 0 kts
Sat, Sep 24, 2011 KSFB KSFB 14:51 15:11 0.34 hrs 0.00 hrs 0.01 nm 28.20 gal 82.94 gal/hr 2820.00 gal/nm 53 msl 321 kts
Sat, Sep 24, 2011 KSFB KSFB 14:42 14:47 0.08 hrs 0.00 hrs 0.00 nm 16.93 gal 211.62 gal/hr 0.00 gal/nm 0 msl 0 kts
Sat, Sep 24, 2011     14:29 20:16 0.02 hrs 0.00 hrs 0.00 nm 5.65 gal 376.67 gal/hr 0.00 gal/nm 0 msl 0 kts
Fri, Sep 23, 2011 KSFB KSFB 13:47 15:38 1.76 hrs 1.19 hrs 225.53 nm 938.51 gal 532.74 gal/hr 4.16 gal/nm 9084 msl 176 kts
Fri, Sep 23, 2011     11:44 11:45 0.01 hrs 0.00 hrs 0.00 nm 5.64 gal 1128.00 gal/hr 0.00 gal/nm 0 msl 0 kts
Thu, Sep 22, 2011 KSFB KSFB 13:12 14:24 1.19 hrs 0.00 hrs 0.00 nm 394.88 gal 331.83 gal/hr 0.00 gal/nm 0 msl 0 kts
Wed, Sep 14, 2011 KOPN KSFB 12:47 14:13 1.38 hrs 1.08 hrs 314.26 nm 921.50 gal 666.14 gal/hr 2.93 gal/nm 29003 msl 282 kts
Wed, Sep 14, 2011 KPDK KOPN 11:56 12:31 0.56 hrs 0.35 hrs 69.72 nm 288.50 gal 512.14 gal/hr 4.14 gal/nm 6005 msl 193 kts
Fri, Sep 9, 2011 KOPN KPDK 11:41 12:10 0.47 hrs 0.27 hrs 59.30 nm 280.52 gal 596.85 gal/hr 4.73 gal/nm 6006 msl 212 kts
Fri, Sep 9, 2011 KOPN KOPN 11:05 11:39 0.53 hrs 0.40 hrs 79.93 nm 355.21 gal 674.46 gal/hr 4.44 gal/nm 4016 msl 190 kts
Fri, Sep 9, 2011 KSFB KOPN 09:16 10:57 1.63 hrs 1.12 hrs 313.11 nm 961.91 gal 591.34 gal/hr 3.07 gal/nm 27006 msl 272 kts
Thu, Sep 8, 2011 KSSI KSFB 21:48 23:04 1.22 hrs 0.67 hrs 155.28 nm 711.56 gal 584.04 gal/hr 4.58 gal/nm 12004 msl 224 kts
Thu, Sep 8, 2011 KOMN KSSI 18:22 19:08 0.72 hrs 0.49 hrs 121.91 nm 493.28 gal 681.96 gal/hr 4.05 gal/nm 11003 msl 238 kts
Thu, Sep 8, 2011 KSFB KOMN 17:30 17:58 0.46 hrs 0.21 hrs 44.84 nm 241.01 gal 527.75 gal/hr 5.37 gal/nm 3021 msl 201 kts
Thu, Sep 8, 2011 KPIE KSFB 14:17 15:07 0.78 hrs 0.51 hrs 129.36 nm 522.69 gal 670.12 gal/hr 4.04 gal/nm 11009 msl 242 kts
Thu, Sep 8, 2011 KSFB KPIE 11:15 12:11 0.92 hrs 0.53 hrs 121.26 nm 557.94 gal 604.27 gal/hr 4.60 gal/nm 10006 msl 220 kts
Wed, Sep 7, 2011 55J KSFB 22:17 23:02 0.71 hrs 0.48 hrs 121.88 nm 488.07 gal 684.21 gal/hr 4.00 gal/nm 14038 msl 238 kts
Wed, Sep 7, 2011 KSFB 55J 18:51 19:40 0.78 hrs 0.46 hrs 120.14 nm 480.91 gal 620.53 gal/hr 4.00 gal/nm 16004 msl 247 kts
Wed, Sep 7, 2011     14:37 14:37 0.01 hrs 0.00 hrs 0.00 nm 11.28 gal 1128.00 gal/hr 0.00 gal/nm 0 msl 0 kts
Wed, Sep 7, 2011 KGSO KSFB 11:36 14:09 2.49 hrs 1.77 hrs 459.59 nm 1434.74 gal 577.36 gal/hr 3.12 gal/nm 28011 msl 255 kts
Wed, Sep 7, 2011 KGSO KGSO 10:54 11:00 0.1 hrs 0.00 hrs 0.00 nm 11.29 gal 109.26 gal/hr 0.00 gal/nm 0 msl 0 kts
Wed, Sep 7, 2011 KGSO KGSO 10:17 10:19 0.05 hrs 0.00 hrs 0.00 nm 293.35 gal 6286.07 gal/hr 0.00 gal/nm 0 msl 0 kts
Tue, Sep 6, 2011 KGSO KGSO 17:25 17:28 0.04 hrs 0.00 hrs 0.00 nm 11.29 gal 294.52 gal/hr 0.00 gal/nm 0 msl 0 kts
Wed, Aug 31, 2011 KGSO KGSO 15:41 15:46 0.08 hrs 0.00 hrs 0.00 nm 11.28 gal 141.00 gal/hr 0.00 gal/nm 0 msl 0 kts
Wed, Aug 31, 2011 KGSO KGSO 11:34 11:36 0.04 hrs 0.00 hrs 0.00 nm 5.64 gal 147.13 gal/hr 0.00 gal/nm 0 msl 0 kts
Tue, Aug 30, 2011 KGSO KGSO 17:57 18:24 0.44 hrs 0.00 hrs 0.00 nm 16.93 gal 38.19 gal/hr 0.00 gal/nm 0 msl 0 kts
Tue, Aug 30, 2011 KGSO KGSO 16:01 16:25 0.39 hrs 0.00 hrs 0.00 nm 16.93 gal 43.23 gal/hr 0.00 gal/nm 0 msl 0 kts
Tue, Aug 30, 2011 KGSO KGSO 15:51 15:57 0.1 hrs 0.00 hrs 0.00 nm 11.29 gal 109.26 gal/hr 0.00 gal/nm 0 msl 0 kts
Sun, Aug 28, 2011 KGSO KGSO 13:51 13:52 0.03 hrs 0.00 hrs 0.00 nm 0.00 gal 0.00 gal/hr 0.00 gal/nm 0 msl 0 kts
Sun, Aug 28, 2011 KGSO KGSO 13:35 13:49 0.25 hrs 0.00 hrs 0.00 nm 298.99 gal 1220.37 gal/hr 0.00 gal/nm 0 msl 0 kts
Sun, Aug 28, 2011 KGSO KGSO 13:31 13:32 0.03 hrs 0.00 hrs 0.00 nm 5.64 gal 199.06 gal/hr 0.00 gal/nm 0 msl 0 kts
Sun, Aug 28, 2011 KGSO KGSO 13:22 13:30 0.14 hrs 0.00 hrs 0.00 nm 16.92 gal 123.80 gal/hr 0.00 gal/nm 0 msl 0 kts
Fri, Aug 26, 2011     03:19 03:19 0.01 hrs 0.00 hrs 0.00 nm 16.93 gal 1693.00 gal/hr 0.00 gal/nm 0 msl 0 kts
Fri, Aug 26, 2011     03:18 03:18 0.01 hrs 0.00 hrs 0.00 nm 16.93 gal 3386.00 gal/hr 0.00 gal/nm 0 msl 0 kts
Fri, Aug 26, 2011 KGSO KGSO 02:40 03:09 0.48 hrs 0.00 hrs 0.05 nm 16.93 gal 35.52 gal/hr 338.60 gal/nm 0 msl 78 kts
Fri, Aug 26, 2011 KGSO KGSO 01:07 01:54 0.79 hrs 0.00 hrs 0.00 nm 11.28 gal 14.22 gal/hr 0.00 gal/nm 0 msl 0 kts
Thu, Aug 25, 2011 KGSO KGSO 23:39 23:42 0.06 hrs 0.00 hrs 0.00 nm 16.92 gal 298.59 gal/hr 0.00 gal/nm 0 msl 0 kts
Thu, Aug 25, 2011     23:37 23:38 0.02 hrs 0.00 hrs 0.00 nm 22.56 gal 1504.00 gal/hr 0.00 gal/nm 0 msl 0 kts
Thu, Aug 25, 2011 KGSO KGSO 22:54 23:37 0.71 hrs 0.00 hrs 0.00 nm 229.36 gal 324.56 gal/hr 0.00 gal/nm 0 msl 0 kts
Thu, Aug 25, 2011 KGSO KGSO 17:58 18:07 0.15 hrs 0.00 hrs 0.00 nm 50.77 gal 346.16 gal/hr 0.00 gal/nm 0 msl 0 kts
Wed, Aug 24, 2011 KGSO KGSO 06:07 06:29 0.36 hrs 0.00 hrs 0.00 nm 513.35 gal 1412.89 gal/hr 0.00 gal/nm 0 msl 0 kts
Wed, Aug 24, 2011 KGSO KGSO 05:56 06:07 0.19 hrs 0.00 hrs 0.00 nm 11.28 gal 59.89 gal/hr 0.00 gal/nm 0 msl 0 kts
Wed, Aug 24, 2011     05:54 05:55 0.02 hrs 0.00 hrs 0.00 nm 513.36 gal 34224.00 gal/hr 0.00 gal/nm 0 msl 0 kts
Wed, Aug 24, 2011     05:53 05:54 0.01 hrs 0.00 hrs 0.00 nm 11.28 gal 1128.00 gal/hr 0.00 gal/nm 0 msl 0 kts
Wed, Aug 24, 2011 KGSO KGSO 05:26 05:52 0.44 hrs 0.00 hrs 0.00 nm 11.28 gal 25.64 gal/hr 0.00 gal/nm 0 msl 0 kts
Wed, Aug 24, 2011 KGSO KGSO 05:23 05:25 0.04 hrs 0.00 hrs 0.00 nm 11.28 gal 294.26 gal/hr 0.00 gal/nm 0 msl 0 kts
Wed, Aug 24, 2011     05:22 05:22 0.01 hrs 0.00 hrs 0.00 nm 5.64 gal 1128.00 gal/hr 0.00 gal/nm 0 msl 0 kts
Wed, Aug 24, 2011 KGSO KGSO 05:05 05:21 0.26 hrs 0.00 hrs 0.00 nm 829.27 gal 3189.50 gal/hr 0.00 gal/nm 0 msl 0 kts
Tue, Aug 23, 2011 KGSO KGSO 13:44 13:47 0.06 hrs 0.00 hrs 0.00 nm 11.28 gal 199.06 gal/hr 0.00 gal/nm 0 msl 0 kts
Mon, Aug 22, 2011 KGSO KGSO 23:53 00:25 0.52 hrs 0.00 hrs 0.00 nm 28.21 gal 54.42 gal/hr 0.00 gal/nm 0 msl 0 kts
Mon, Aug 22, 2011     15:30 15:30 0.01 hrs 0.00 hrs 0.00 nm 16.93 gal 3386.00 gal/hr 0.00 gal/nm 0 msl 0 kts
Mon, Aug 22, 2011 KGSO KGSO 14:37 15:09 0.52 hrs 0.00 hrs 0.00 nm 145.32 gal 280.37 gal/hr 0.00 gal/nm 0 msl 0 kts
Mon, Aug 22, 2011 KGSO KGSO 13:49 13:53 0.07 hrs 0.00 hrs 0.00 nm 0.01 gal 0.17 gal/hr 0.00 gal/nm 0 msl 0 kts
Mon, Aug 22, 2011 KGSO KGSO 13:21 13:27 0.1 hrs 0.00 hrs 0.00 nm 0.01 gal 0.06 gal/hr 0.00 gal/nm 0 msl 0 kts
Mon, Aug 22, 2011 KGSO KGSO 10:25 10:39 0.23 hrs 0.00 hrs 0.00 nm 0.00 gal 0.00 gal/hr 0.00 gal/nm 0 msl 0 kts
Mon, Aug 22, 2011 KGSO KGSO 10:12 10:18 0.1 hrs 0.00 hrs 0.00 nm 5.64 gal 59.37 gal/hr 0.00 gal/nm 0 msl 0 kts
Mon, Aug 22, 2011 KSDF KGSO 06:41 07:58 1.23 hrs 1.02 hrs 327.91 nm 863.20 gal 701.79 gal/hr 2.63 gal/nm 30004 msl 308 kts
Sun, Aug 21, 2011     14:33 14:34 0.02 hrs 0.00 hrs 0.00 nm 5.64 gal 307.64 gal/hr 0.00 gal/nm 0 msl 0 kts
Sun, Aug 21, 2011     11:48 11:49 0.01 hrs 0.00 hrs 0.00 nm 479.51 gal 35963.25 gal/hr 0.00 gal/nm 0 msl 0 kts
Sun, Aug 21, 2011     11:23 11:28 0.08 hrs 0.00 hrs 0.00 nm 5.64 gal 70.50 gal/hr 0.00 gal/nm 0 msl 0 kts
Wed, Aug 17, 2011 KLIT KSDF 15:17 16:54 1.55 hrs 1.35 hrs 406.94 nm 1159.42 gal 749.63 gal/hr 2.85 gal/nm 23007 msl 290 kts
Wed, Aug 17, 2011 KSDF KLIT 13:27 15:05 1.57 hrs 1.30 hrs 379.83 nm 1042.31 gal 666.01 gal/hr 2.74 gal/nm 34004 msl 283 kts
Tue, Aug 16, 2011 KSDF KSDF 09:03 09:46 0.67 hrs 0.36 hrs 76.81 nm 360.04 gal 534.72 gal/hr 4.69 gal/nm 12047 msl 201 kts
Tue, Aug 16, 2011     08:36 08:37 0.01 hrs 0.00 hrs 0.00 nm 11.28 gal 2256.00 gal/hr 0.00 gal/nm 0 msl 0 kts
Tue, Aug 16, 2011     07:44 07:44 0.01 hrs 0.00 hrs 0.00 nm 16.92 gal 1692.00 gal/hr 0.00 gal/nm 0 msl 0 kts
Tue, Aug 16, 2011     07:34 07:34 0.01 hrs 0.00 hrs 0.00 nm 11.29 gal 1129.00 gal/hr 0.00 gal/nm 0 msl 0 kts
Thu, Aug 11, 2011 KBNA KSDF 12:20 13:09 0.77 hrs 0.54 hrs 136.18 nm 515.60 gal 671.06 gal/hr 3.79 gal/nm 17020 msl 243 kts
Thu, Aug 11, 2011     10:17 10:18 0.01 hrs 0.00 hrs 0.00 nm 11.28 gal 1128.00 gal/hr 0.00 gal/nm 0 msl 0 kts
Wed, Aug 10, 2011 KSDF KBNA 16:10 17:09 0.95 hrs 0.66 hrs 167.12 nm 609.82 gal 641.91 gal/hr 3.65 gal/nm 22004 msl 246 kts
Wed, Aug 10, 2011     14:17 14:20 0.04 hrs 0.00 hrs 0.00 nm 11.29 gal 260.54 gal/hr 0.00 gal/nm 0 msl 0 kts
Mon, Aug 1, 2011     12:34 13:19 0.74 hrs 0.00 hrs 0.00 nm 11.29 gal 15.26 gal/hr 0.00 gal/nm 0 msl 0 kts
          39.58 hrs 21.04 hrs 4954.88 nm 22700.14 gal